createdAt,value
2017-09-22T00:01:58.504Z,78.51
2017-09-22T00:04:26.158Z,78.54
2017-09-22T00:06:53.798Z,78.75
2017-09-22T00:09:21.520Z,78.59
2017-09-22T00:11:49.101Z,78.77
2017-09-22T00:14:16.711Z,78.97
2017-09-22T00:16:44.330Z,78.97
2017-09-22T00:19:11.909Z,79.01
2017-09-22T00:21:39.520Z,78.93
2017-09-22T00:24:07.095Z,79.14
2017-09-22T00:26:34.712Z,79.21
2017-09-22T00:29:02.298Z,79.28
2017-09-22T00:31:29.876Z,79.45
2017-09-22T00:33:57.483Z,79.38
2017-09-22T00:36:25.359Z,79.76
2017-09-22T00:38:52.990Z,79.70
2017-09-22T00:41:20.576Z,79.88
2017-09-22T00:43:48.168Z,79.99
2017-09-22T00:46:15.785Z,79.97
2017-09-22T00:48:43.668Z,80.03
2017-09-22T00:51:11.280Z,80.08
2017-09-22T00:53:39.206Z,80.17
2017-09-22T00:56:06.818Z,80.16
2017-09-22T00:58:34.432Z,80.26
2017-09-22T01:01:02.039Z,80.26
2017-09-22T01:03:29.663Z,80.41
2017-09-22T01:05:57.239Z,80.48
2017-09-22T01:08:24.814Z,80.55
2017-09-22T01:10:52.425Z,80.55
2017-09-22T01:13:20.002Z,80.91
2017-09-22T01:15:47.614Z,80.92
2017-09-22T01:18:15.207Z,80.94
2017-09-22T01:20:43.084Z,80.82
2017-09-22T01:23:10.687Z,80.79
2017-09-22T01:25:38.375Z,80.64
2017-09-22T01:28:06.000Z,80.63
2017-09-22T01:30:33.579Z,80.54
2017-09-22T01:33:01.197Z,80.52
2017-09-22T01:35:28.838Z,80.75
2017-09-22T01:37:56.424Z,80.62
2017-09-22T01:40:24.057Z,80.63
2017-09-22T01:42:51.635Z,80.61
2017-09-22T01:45:19.213Z,80.75
2017-09-22T01:47:46.819Z,80.65
2017-09-22T01:50:14.397Z,80.59
2017-09-22T01:52:42.012Z,80.53
2017-09-22T01:55:09.601Z,80.42
2017-09-22T01:57:37.190Z,80.26
2017-09-22T02:00:05.084Z,80.29
2017-09-22T02:02:32.664Z,79.77
2017-09-22T02:05:00.286Z,79.89
2017-09-22T02:07:27.871Z,80.15
2017-09-22T02:09:55.460Z,80.03
2017-09-22T02:12:23.107Z,79.91
2017-09-22T02:14:50.688Z,80.01
2017-09-22T02:17:18.302Z,80.17
2017-09-22T02:19:46.180Z,80.25
2017-09-22T02:22:13.752Z,80.22
2017-09-22T02:24:41.369Z,79.92
2017-09-22T02:27:08.953Z,79.95
2017-09-22T02:29:36.568Z,80.13
2017-09-22T02:32:04.147Z,80.23
2017-09-22T02:34:32.059Z,80.30
2017-09-22T02:36:59.670Z,80.35
2017-09-22T02:39:27.248Z,80.47
2017-09-22T02:41:54.870Z,80.38
2017-09-22T02:44:22.472Z,80.34
2017-09-22T02:46:50.055Z,80.24
2017-09-22T02:49:17.899Z,80.30
2017-09-22T02:51:45.506Z,80.17
2017-09-22T02:54:13.129Z,80.09
2017-09-22T02:56:40.734Z,80.05
2017-09-22T02:59:08.309Z,80.10
2017-09-22T03:01:35.916Z,80.18
2017-09-22T03:04:03.528Z,80.21
2017-09-22T03:06:31.141Z,80.24
2017-09-22T03:08:58.717Z,80.29
2017-09-22T03:11:26.293Z,80.14
2017-09-22T03:13:53.905Z,79.92
2017-09-22T03:16:21.491Z,80.10
2017-09-22T03:18:49.108Z,80.38
2017-09-22T03:21:16.694Z,80.46
2017-09-22T03:23:44.330Z,80.43
2017-09-22T03:26:11.956Z,80.42
2017-09-22T03:28:39.532Z,80.35
2017-09-22T03:31:07.162Z,80.30
2017-09-22T03:33:34.748Z,80.25
2017-09-22T03:36:02.324Z,79.95
2017-09-22T03:38:29.935Z,79.98
2017-09-22T03:40:57.527Z,79.83
2017-09-22T03:43:25.174Z,79.82
2017-09-22T03:45:53.056Z,79.97
2017-09-22T03:48:20.871Z,80.22
2017-09-22T03:50:48.523Z,80.31
2017-09-22T03:53:16.122Z,80.37
2017-09-22T03:55:43.749Z,80.59
2017-09-22T03:58:11.346Z,80.51
2017-09-22T04:00:38.938Z,80.72
2017-09-22T04:03:06.562Z,81.01
2017-09-22T04:05:34.139Z,81.41
2017-09-22T04:08:01.755Z,81.46
2017-09-22T04:10:29.346Z,81.40
2017-09-22T04:12:56.935Z,81.42
2017-09-22T04:15:24.559Z,81.06
2017-09-22T04:17:52.139Z,81.17
2017-09-22T04:20:19.769Z,81.09
2017-09-22T04:22:47.346Z,81.32
2017-09-22T04:25:14.927Z,81.44
2017-09-22T04:27:42.587Z,81.42
2017-09-22T04:30:11.096Z,81.36
2017-09-22T04:32:38.764Z,81.32
2017-09-22T04:35:06.346Z,81.35
2017-09-22T04:37:33.928Z,81.30
2017-09-22T04:40:01.541Z,81.18
2017-09-22T04:42:29.133Z,81.31
2017-09-22T04:44:56.711Z,81.41
2017-09-22T04:47:24.404Z,81.52
2017-09-22T04:49:52.012Z,81.42
2017-09-22T04:52:19.618Z,81.32
2017-09-22T04:54:47.226Z,81.33
2017-09-22T04:57:15.090Z,81.28
2017-09-22T04:59:42.705Z,81.17
2017-09-22T05:02:10.288Z,81.25
2017-09-22T05:04:37.871Z,81.20
2017-09-22T05:07:05.469Z,81.21
2017-09-22T05:09:33.402Z,81.34
2017-09-22T05:12:01.023Z,81.39
2017-09-22T05:14:28.611Z,81.35
2017-09-22T05:16:56.199Z,81.32
2017-09-22T05:19:23.842Z,81.47
2017-09-22T05:21:51.439Z,81.40
2017-09-22T05:24:19.050Z,81.24
2017-09-22T05:26:46.630Z,81.08
2017-09-22T05:29:14.217Z,80.79
2017-09-22T05:31:41.824Z,80.42
2017-09-22T05:34:09.404Z,80.20
2017-09-22T05:36:37.020Z,80.10
2017-09-22T05:39:04.644Z,79.83
2017-09-22T05:41:32.238Z,79.75
2017-09-22T05:43:59.858Z,79.71
2017-09-22T05:46:27.458Z,79.63
2017-09-22T05:48:55.074Z,79.49
2017-09-22T05:51:22.657Z,79.24
2017-09-22T05:53:50.243Z,79.20
2017-09-22T05:56:17.857Z,79.07
2017-09-22T05:58:45.457Z,78.77
2017-09-22T06:01:13.087Z,78.53
2017-09-22T06:03:40.760Z,78.08
2017-09-22T06:06:08.344Z,77.81
2017-09-22T06:08:35.970Z,77.61
2017-09-22T06:11:03.546Z,77.50
2017-09-22T06:13:31.173Z,77.48
2017-09-22T06:15:58.761Z,77.54
2017-09-22T06:18:26.335Z,77.24
2017-09-22T06:20:56.514Z,77.15
2017-09-22T06:23:26.251Z,76.73
2017-09-22T06:25:53.930Z,76.41
2017-09-22T06:28:23.604Z,76.03
2017-09-22T06:30:51.712Z,75.58
2017-09-22T06:33:19.378Z,74.22
2017-09-22T06:35:46.962Z,73.99
2017-09-22T06:38:14.595Z,73.78
2017-09-22T06:40:42.187Z,73.91
2017-09-22T06:43:09.774Z,74.07
2017-09-22T06:45:37.927Z,73.51
2017-09-22T06:48:11.133Z,72.80
2017-09-22T06:50:40.308Z,71.22
2017-09-22T06:53:07.896Z,69.20
2017-09-22T06:55:37.044Z,69.28
2017-09-22T06:58:05.068Z,68.75
2017-09-22T07:00:33.926Z,69.27
2017-09-22T07:03:01.876Z,69.05
2017-09-22T07:05:29.515Z,69.11
2017-09-22T07:07:57.403Z,68.85
2017-09-22T07:10:24.984Z,68.78
2017-09-22T07:12:52.941Z,68.83
2017-09-22T07:15:20.522Z,68.66
2017-09-22T07:17:48.467Z,68.40
2017-09-22T07:20:16.048Z,67.68
2017-09-22T07:22:43.636Z,67.08
2017-09-22T07:25:11.260Z,66.75
2017-09-22T07:27:38.841Z,65.65
2017-09-22T07:30:06.459Z,65.63
2017-09-22T07:32:34.032Z,65.60
2017-09-22T07:35:01.616Z,66.19
2017-09-22T07:37:29.216Z,66.28
2017-09-22T07:39:56.804Z,65.54
2017-09-22T07:42:24.429Z,65.50
2017-09-22T07:44:52.014Z,65.68
2017-09-22T07:47:19.586Z,66.10
2017-09-22T07:49:47.188Z,66.29
2017-09-22T07:52:14.772Z,66.26
2017-09-22T07:54:42.395Z,66.22
2017-09-22T07:57:09.977Z,63.99
2017-09-22T07:59:37.551Z,64.42
2017-09-22T08:02:05.162Z,63.17
2017-09-22T08:04:32.730Z,62.88
2017-09-22T08:07:00.366Z,62.83
2017-09-22T08:09:27.953Z,61.67
2017-09-22T08:11:55.543Z,61.17
2017-09-22T08:14:23.143Z,60.73
2017-09-22T08:16:50.861Z,61.14
2017-09-22T08:19:18.483Z,58.85
2017-09-22T08:21:46.278Z,58.59
2017-09-22T08:24:14.011Z,59.21
2017-09-22T08:26:41.614Z,57.71
2017-09-22T08:29:09.199Z,57.07
2017-09-22T08:31:36.812Z,58.11
2017-09-22T08:34:04.424Z,58.35
2017-09-22T08:36:32.000Z,58.25
2017-09-22T08:38:59.615Z,57.49
2017-09-22T08:41:27.183Z,57.98
2017-09-22T08:44:11.235Z,56.43
2017-09-22T08:46:41.074Z,55.99
2017-09-22T08:49:08.787Z,55.44
2017-09-22T08:51:36.663Z,55.75
2017-09-22T08:54:04.244Z,55.22
2017-09-22T08:56:31.870Z,54.43
2017-09-22T08:59:00.525Z,55.45
2017-09-22T09:01:29.032Z,54.53
2017-09-22T09:03:56.607Z,54.07
2017-09-22T09:06:24.803Z,53.17
2017-09-22T09:08:54.856Z,51.71
2017-09-22T09:11:22.449Z,50.47
2017-09-22T09:13:51.001Z,49.19
2017-09-22T09:16:18.718Z,48.82
2017-09-22T09:18:47.005Z,49.42
2017-09-22T09:21:14.973Z,48.94
2017-09-22T09:23:42.565Z,49.21
2017-09-22T09:26:10.182Z,49.64
2017-09-22T09:28:37.754Z,50.69
2017-09-22T09:31:05.319Z,51.23
2017-09-22T09:33:32.933Z,52.56
2017-09-22T09:36:00.517Z,52.03
2017-09-22T09:38:28.140Z,51.63
2017-09-22T09:40:56.068Z,51.88
2017-09-22T09:43:23.648Z,52.11
2017-09-22T09:45:51.248Z,51.32
2017-09-22T09:48:18.823Z,51.10
2017-09-22T09:50:46.438Z,51.28
2017-09-22T09:53:14.008Z,51.66
2017-09-22T09:55:41.723Z,50.98
2017-09-22T09:58:09.375Z,51.48
2017-09-22T10:00:36.947Z,52.34
2017-09-22T10:03:04.560Z,52.12
2017-09-22T10:05:32.131Z,52.41
2017-09-22T10:07:59.994Z,53.18
2017-09-22T10:10:27.588Z,54.09
2017-09-22T10:12:55.488Z,53.80
2017-09-22T10:15:23.454Z,52.66
2017-09-22T10:17:51.032Z,52.70
2017-09-22T10:20:18.631Z,52.43
2017-09-22T10:22:46.245Z,51.78
2017-09-22T10:25:13.831Z,51.14
2017-09-22T10:27:41.447Z,50.05
2017-09-22T10:30:09.027Z,51.79
2017-09-22T10:32:36.631Z,50.41
2017-09-22T10:35:04.227Z,50.60
2017-09-22T10:37:31.856Z,49.12
2017-09-22T10:39:59.477Z,47.77
2017-09-22T10:42:27.061Z,46.42
2017-09-22T10:44:54.631Z,45.73
2017-09-22T10:47:22.382Z,47.10
2017-09-22T10:49:49.992Z,48.28
2017-09-22T10:52:17.641Z,49.51
2017-09-22T10:54:45.222Z,51.15
2017-09-22T10:57:12.828Z,52.02
2017-09-22T10:59:40.444Z,52.72
2017-09-22T11:02:08.037Z,52.19
2017-09-22T11:04:35.648Z,51.34
2017-09-22T11:07:03.564Z,50.78
2017-09-22T11:09:31.150Z,51.15
2017-09-22T11:11:58.763Z,50.83
2017-09-22T11:14:26.337Z,49.42
2017-09-22T11:16:54.315Z,49.59
2017-09-22T11:19:22.123Z,50.90
2017-09-22T11:21:49.733Z,51.89
2017-09-22T11:24:17.636Z,50.89
2017-09-22T11:26:51.479Z,49.96
2017-09-22T11:29:27.240Z,49.93
2017-09-22T11:31:54.292Z,49.69
2017-09-22T11:34:22.048Z,49.96
2017-09-22T11:36:50.165Z,48.63
2017-09-22T11:39:18.251Z,47.43
2017-09-22T11:41:48.093Z,46.12
2017-09-22T11:44:15.840Z,47.49
2017-09-22T11:46:46.142Z,48.69
2017-09-22T11:49:16.254Z,49.47
2017-09-22T11:51:45.540Z,50.67
2017-09-22T11:54:13.417Z,51.36
2017-09-22T11:56:41.370Z,51.77
2017-09-22T11:59:09.832Z,52.58
2017-09-22T12:01:37.492Z,52.82
2017-09-22T12:04:05.163Z,53.08
2017-09-22T12:06:32.783Z,49.05
2017-09-22T12:09:00.355Z,44.38
2017-09-22T12:11:29.794Z,42.08
2017-09-22T12:13:58.067Z,40.42
2017-09-22T12:16:25.997Z,39.76
2017-09-22T12:18:53.643Z,41.35
2017-09-22T12:21:21.266Z,43.66
2017-09-22T12:23:49.376Z,45.40
2017-09-22T12:26:16.996Z,45.78
2017-09-22T12:28:44.575Z,46.24
2017-09-22T12:31:12.192Z,45.70
2017-09-22T12:33:39.776Z,45.38
2017-09-22T12:36:07.692Z,45.23
2017-09-22T12:38:35.308Z,45.90
2017-09-22T12:41:02.922Z,46.05
2017-09-22T12:43:30.783Z,45.97
2017-09-22T12:45:58.581Z,46.15
2017-09-22T12:48:26.160Z,46.50
2017-09-22T12:50:53.764Z,46.92
2017-09-22T12:53:21.645Z,47.26
2017-09-22T12:55:49.265Z,47.48
2017-09-22T12:58:16.848Z,47.05
2017-09-22T13:00:44.444Z,47.44
2017-09-22T13:03:12.056Z,48.68
2017-09-22T13:05:39.640Z,48.15
2017-09-22T13:08:07.259Z,49.48
2017-09-22T13:10:34.849Z,48.72
2017-09-22T13:13:02.437Z,49.25
2017-09-22T13:15:30.087Z,48.67
2017-09-22T13:17:57.668Z,48.55
2017-09-22T13:20:25.627Z,48.32
2017-09-22T13:22:53.204Z,48.01
2017-09-22T13:25:20.802Z,47.67
2017-09-22T13:27:48.422Z,47.67
2017-09-22T13:30:15.998Z,47.77
2017-09-22T13:32:43.652Z,47.51
2017-09-22T13:35:11.259Z,47.48
2017-09-22T13:37:38.848Z,46.89
2017-09-22T13:40:06.457Z,46.54
2017-09-22T13:42:34.040Z,46.94
2017-09-22T13:45:01.952Z,47.19
2017-09-22T13:47:29.527Z,47.88
2017-09-22T13:49:57.255Z,47.34
2017-09-22T13:52:24.876Z,48.13
2017-09-22T13:54:52.465Z,48.23
2017-09-22T13:57:20.087Z,48.08
2017-09-22T13:59:47.700Z,48.87
2017-09-22T14:02:15.596Z,47.83
2017-09-22T14:04:43.213Z,46.88
2017-09-22T14:07:11.636Z,46.44
2017-09-22T14:09:39.292Z,46.57
2017-09-22T14:12:06.877Z,47.03
2017-09-22T14:14:34.444Z,46.94
2017-09-22T14:17:02.060Z,47.06
2017-09-22T14:19:29.651Z,47.13
2017-09-22T14:21:57.288Z,47.04
2017-09-22T14:24:24.876Z,47.60
2017-09-22T14:26:52.444Z,48.23
2017-09-22T14:29:20.052Z,48.13
2017-09-22T14:31:47.664Z,48.12
2017-09-22T14:34:21.383Z,48.35
2017-09-22T14:36:52.285Z,48.18
2017-09-22T14:39:20.010Z,47.86
2017-09-22T14:41:47.584Z,48.07
2017-09-22T14:44:15.325Z,49.32
2017-09-22T14:46:42.935Z,48.92
2017-09-22T14:49:10.517Z,49.13
2017-09-22T14:51:38.180Z,48.59
2017-09-22T14:54:05.752Z,48.88
2017-09-22T14:56:33.331Z,48.85
2017-09-22T14:59:00.939Z,49.57
2017-09-22T15:01:28.514Z,49.36
2017-09-22T15:03:56.123Z,48.63
2017-09-22T15:06:23.687Z,48.27
2017-09-22T15:08:51.503Z,47.46
2017-09-22T15:11:19.098Z,47.39
2017-09-22T15:13:46.966Z,47.81
2017-09-22T15:16:14.600Z,48.10
2017-09-22T15:18:42.788Z,48.27
2017-09-22T15:21:10.370Z,47.72
2017-09-22T15:23:38.305Z,47.33
2017-09-22T15:26:05.901Z,47.45
2017-09-22T15:28:33.518Z,49.21
2017-09-22T15:31:01.117Z,49.27
2017-09-22T15:33:28.693Z,49.45
2017-09-22T15:35:56.295Z,50.46
2017-09-22T15:38:23.874Z,50.23
2017-09-22T15:40:51.740Z,48.70
2017-09-22T15:43:19.720Z,48.61
2017-09-22T15:45:47.335Z,47.56
2017-09-22T15:48:14.899Z,48.06
2017-09-22T15:50:42.491Z,49.63
2017-09-22T15:53:10.089Z,50.28
2017-09-22T15:55:37.668Z,49.85
2017-09-22T15:58:05.590Z,50.48
2017-09-22T16:00:33.174Z,50.66
2017-09-22T16:03:00.767Z,51.28
2017-09-22T16:05:28.371Z,51.53
2017-09-22T16:07:56.170Z,51.93
2017-09-22T16:10:23.808Z,51.91
2017-09-22T16:12:51.404Z,51.37
2017-09-22T16:15:19.335Z,51.84
2017-09-22T16:17:46.939Z,52.16
2017-09-22T16:20:14.525Z,52.75
2017-09-22T16:22:42.192Z,52.77
2017-09-22T16:25:09.773Z,52.55
2017-09-22T16:27:37.352Z,52.71
2017-09-22T16:30:04.952Z,53.25
2017-09-22T16:32:32.527Z,53.33
2017-09-22T16:35:00.144Z,53.93
2017-09-22T16:37:27.736Z,54.27
2017-09-22T16:39:55.325Z,54.67
2017-09-22T16:42:22.924Z,55.13
2017-09-22T16:44:50.508Z,55.55
2017-09-22T16:47:18.153Z,55.98
2017-09-22T16:49:45.726Z,55.88
2017-09-22T16:52:13.567Z,56.16
2017-09-22T16:54:41.429Z,55.57
2017-09-22T16:57:09.011Z,55.63
2017-09-22T16:59:37.021Z,56.04
2017-09-22T17:02:04.604Z,56.36
2017-09-22T17:04:32.182Z,57.06
2017-09-22T17:06:59.806Z,57.64
2017-09-22T17:09:27.389Z,58.01
2017-09-22T17:11:55.004Z,58.40
2017-09-22T17:14:22.614Z,58.65
2017-09-22T17:16:50.193Z,58.90
2017-09-22T17:19:17.943Z,59.53
2017-09-22T17:21:45.558Z,59.60
2017-09-22T17:24:13.600Z,59.68
2017-09-22T17:26:41.419Z,60.06
2017-09-22T17:29:09.033Z,60.53
2017-09-22T17:31:36.632Z,60.75
2017-09-22T17:34:04.234Z,61.09
2017-09-22T17:36:32.114Z,61.17
2017-09-22T17:38:59.692Z,61.30
2017-09-22T17:41:27.284Z,61.42
2017-09-22T17:43:54.888Z,61.58
2017-09-22T17:46:22.510Z,62.02
2017-09-22T17:48:50.124Z,62.47
2017-09-22T17:51:17.701Z,62.79
2017-09-22T17:53:45.273Z,62.94
2017-09-22T17:56:12.886Z,62.84
2017-09-22T17:58:40.479Z,63.06
2017-09-22T18:01:08.447Z,63.54
2017-09-22T18:03:36.047Z,63.39
2017-09-22T18:06:03.630Z,63.60
2017-09-22T18:08:31.244Z,63.63
2017-09-22T18:10:58.833Z,63.68
2017-09-22T18:13:26.456Z,63.89
2017-09-22T18:15:54.312Z,64.12
2017-09-22T18:20:49.110Z,64.70
2017-09-22T18:23:16.696Z,64.75
2017-09-22T18:25:44.664Z,64.83
2017-09-22T18:28:12.240Z,65.01
2017-09-22T18:30:39.828Z,65.23
2017-09-22T18:33:07.444Z,65.25
2017-09-22T18:35:35.030Z,65.31
2017-09-22T18:38:02.611Z,65.47
2017-09-22T18:40:30.335Z,65.89
2017-09-22T18:42:57.916Z,65.98
2017-09-22T18:45:25.500Z,66.20
2017-09-22T18:47:53.127Z,66.70
2017-09-22T18:50:20.716Z,66.93
2017-09-22T18:52:48.297Z,67.12
2017-09-22T18:55:15.915Z,67.31
2017-09-22T18:57:43.772Z,67.56
2017-09-22T19:00:11.347Z,67.42
2017-09-22T19:02:38.962Z,67.71
2017-09-22T19:05:06.572Z,67.80
2017-09-22T19:07:34.196Z,67.83
2017-09-22T19:10:01.784Z,68.11
2017-09-22T19:12:29.374Z,68.34
2017-09-22T19:14:57.004Z,68.71
2017-09-22T19:17:24.603Z,68.76
2017-09-22T19:19:52.227Z,68.99
2017-09-22T19:22:19.860Z,68.98
2017-09-22T19:24:47.458Z,69.08
2017-09-22T19:27:15.066Z,69.14
2017-09-22T19:29:42.688Z,69.59
2017-09-22T19:32:10.317Z,69.84
2017-09-22T19:34:38.215Z,69.99
2017-09-22T19:37:05.792Z,70.28
2017-09-22T19:39:33.396Z,70.21
2017-09-22T19:42:01.258Z,70.18
2017-09-22T19:44:28.953Z,70.67
2017-09-22T19:46:56.543Z,70.98
2017-09-22T19:49:24.167Z,70.78
2017-09-22T19:51:51.769Z,70.94
2017-09-22T19:54:19.610Z,70.99
2017-09-22T19:56:47.235Z,71.01
2017-09-22T19:59:14.819Z,71.15
2017-09-22T20:01:42.404Z,71.38
2017-09-22T20:04:10.261Z,71.41
2017-09-22T20:06:37.844Z,71.36
2017-09-22T20:09:05.479Z,72.02
2017-09-22T20:11:33.347Z,71.80
2017-09-22T20:14:00.936Z,71.77
2017-09-22T20:16:28.560Z,71.97
2017-09-22T20:18:56.138Z,72.11
2017-09-22T20:21:23.786Z,72.24
2017-09-22T20:23:51.667Z,72.51
2017-09-22T20:26:19.298Z,72.63
2017-09-22T20:28:46.934Z,72.55
2017-09-22T20:31:14.535Z,72.58
2017-09-22T20:33:42.326Z,72.84
2017-09-22T20:36:09.910Z,72.82
2017-09-22T20:38:37.489Z,72.86
2017-09-22T20:41:05.209Z,72.68
2017-09-22T20:43:32.899Z,72.75
2017-09-22T20:46:00.525Z,72.73
2017-09-22T20:48:28.394Z,72.78
2017-09-22T20:50:55.967Z,73.15
2017-09-22T20:53:23.585Z,73.31
2017-09-22T20:55:51.168Z,73.48
2017-09-22T20:58:18.800Z,73.59
2017-09-22T21:00:46.385Z,73.64
2017-09-22T21:03:14.082Z,73.74
2017-09-22T21:05:41.692Z,73.43
2017-09-22T21:08:09.398Z,73.51
2017-09-22T21:10:37.391Z,73.44
2017-09-22T21:13:05.115Z,73.54
2017-09-22T21:15:32.709Z,73.67
2017-09-22T21:18:00.328Z,73.88
2017-09-22T21:20:27.916Z,73.95
2017-09-22T21:22:55.595Z,73.86
2017-09-22T21:25:23.189Z,73.93
2017-09-22T21:27:50.778Z,74.00
2017-09-22T21:30:18.396Z,73.93
2017-09-22T21:32:45.986Z,74.00
2017-09-22T21:35:13.615Z,73.89
2017-09-22T21:37:41.199Z,74.01
2017-09-22T21:40:08.783Z,74.03
2017-09-22T21:42:36.405Z,74.17
2017-09-22T21:45:03.991Z,74.16
2017-09-22T21:47:31.608Z,74.35
2017-09-22T21:49:59.201Z,74.31
2017-09-22T21:52:26.827Z,74.45
2017-09-22T21:54:54.443Z,74.51
2017-09-22T21:57:22.248Z,74.53
2017-09-22T21:59:49.951Z,74.41
2017-09-22T22:02:17.531Z,74.31
2017-09-22T22:04:50.633Z,74.40
2017-09-22T22:07:24.060Z,74.47
2017-09-22T22:09:51.688Z,74.29
2017-09-22T22:12:19.279Z,74.24
2017-09-22T22:14:46.857Z,74.40
2017-09-22T22:17:14.634Z,74.54
2017-09-22T22:19:42.215Z,74.58
2017-09-22T22:22:09.899Z,74.45
2017-09-22T22:24:37.488Z,74.61
2017-09-22T22:27:05.076Z,74.63
2017-09-22T22:29:32.683Z,75.03
2017-09-22T22:32:00.268Z,74.98
2017-09-22T22:34:27.913Z,75.05
2017-09-22T22:37:04.344Z,75.13
2017-09-22T22:39:32.057Z,75.02
2017-09-22T22:41:59.668Z,74.86
2017-09-22T22:44:27.281Z,75.05
2017-09-22T22:46:54.886Z,75.19
2017-09-22T22:49:22.462Z,75.33
2017-09-22T22:51:50.088Z,75.45
2017-09-22T22:54:17.665Z,75.39
2017-09-22T22:56:45.257Z,75.56
2017-09-22T22:59:12.880Z,75.59
2017-09-22T23:01:40.460Z,75.66
2017-09-22T23:04:08.098Z,75.61
2017-09-22T23:06:36.353Z,75.56
2017-09-22T23:09:04.044Z,75.69
2017-09-22T23:11:31.679Z,75.52
2017-09-22T23:13:59.264Z,75.56
2017-09-22T23:16:26.884Z,75.55
2017-09-22T23:18:54.791Z,75.66
2017-09-22T23:21:22.375Z,75.91
2017-09-22T23:23:49.984Z,75.90
2017-09-22T23:26:17.566Z,75.91
2017-09-22T23:28:45.448Z,75.97
2017-09-22T23:31:13.032Z,75.92
2017-09-22T23:33:40.872Z,75.99
2017-09-22T23:36:08.478Z,75.92
2017-09-22T23:38:36.064Z,75.70
2017-09-22T23:41:03.684Z,75.79
2017-09-22T23:43:31.280Z,75.96
2017-09-22T23:45:58.944Z,75.83
2017-09-22T23:48:26.649Z,76.16
2017-09-22T23:50:54.512Z,76.43
2017-09-22T23:53:22.139Z,76.75
2017-09-22T23:55:49.709Z,76.54
2017-09-22T23:58:17.300Z,76.41
